Time;durP1;ratioP1;P1;durP2;ratioP2;P2;SDS_P1;SDS_P2;PMS_P1;PMS_P2;Temp;Humidity;BMP_temperature;BMP_pressure;BME280_temperature;BME280_humidity;BME280_pressure;Samples;Min_cycle;Max_cycle;Signal;HPM_P1;HPM_P2
2020/12/02 00:00:17;;;;;;;37.87;18.30;;;;;;;4.30;80.86;102387.08;1800669;80;21312;-83
2020/12/02 00:03:11;;;;;;;38.17;19.73;;;;;;;4.29;80.82;102384.50;1800508;80;21154;-83
2020/12/02 00:05:47;;;;;;;42.57;21.33;;;;;;;4.27;80.81;102383.30;1800324;80;21312;-84
2020/12/02 00:08:46;;;;;;;42.30;19.87;;;;;;;4.26;80.82;102388.45;1800974;80;22260;-83
2020/12/02 00:11:19;;;;;;;40.10;19.93;;;;;;;4.25;80.85;102394.12;1713085;83;21665;-83
2020/12/02 00:13:52;;;;;;;47.25;21.33;;;;;;;4.20;80.82;102394.66;1778828;80;21440;-84
2020/12/02 00:16:28;;;;;;;48.27;21.90;;;;;;;4.17;80.87;102403.78;1800860;80;21345;-83
2020/12/02 00:19:01;;;;;;;50.60;22.50;;;;;;;4.18;81.07;102408.23;1800222;80;21384;-83
2020/12/02 00:21:34;;;;;;;48.42;22.07;;;;;;;4.25;81.15;102402.38;1800636;80;21159;-83
2020/12/02 00:24:07;;;;;;;43.57;20.77;;;;;;;4.25;81.07;102402.38;1800587;80;21328;-83
2020/12/02 00:26:40;;;;;;;44.50;21.77;;;;;;;4.24;80.98;102407.03;1800501;80;21163;-83
2020/12/02 00:29:12;;;;;;;40.40;20.47;;;;;;;4.22;80.98;102406.86;1778961;80;21233;-83
2020/12/02 00:31:46;;;;;;;43.28;21.00;;;;;;;4.20;81.07;102419.91;1800395;80;21188;-82
2020/12/02 00:34:18;;;;;;;47.70;22.40;;;;;;;4.17;81.14;102401.03;1800473;79;21371;-83
2020/12/02 00:36:51;;;;;;;42.67;20.47;;;;;;;4.14;81.20;102406.36;1800362;80;21670;-83
2020/12/02 00:39:23;;;;;;;45.03;20.93;;;;;;;4.09;81.24;102406.03;1800154;80;21174;-83
2020/12/02 00:41:56;;;;;;;43.90;20.97;;;;;;;4.11;81.42;102411.36;1800139;80;21150;-82
2020/12/02 00:44:29;;;;;;;44.70;21.07;;;;;;;4.14;81.43;102415.11;1800171;80;21170;-82
2020/12/02 00:47:04;;;;;;;45.57;22.00;;;;;;;4.11;81.46;102408.61;1800281;80;21360;-82
2020/12/02 00:49:38;;;;;;;49.00;22.90;;;;;;;4.14;81.53;102409.61;1778640;79;21230;-82
2020/12/02 00:52:11;;;;;;;48.10;21.40;;;;;;;4.15;81.48;102402.58;1800526;80;21689;-83
2020/12/02 00:54:45;;;;;;;44.73;22.25;;;;;;;4.17;81.40;102402.41;1778915;80;21175;-84
2020/12/02 00:57:27;;;;;;;49.17;22.10;;;;;;;4.14;81.43;102411.86;1800276;80;21230;-83
2020/12/02 01:00:00;;;;;;;52.10;22.93;;;;;;;4.16;81.52;102410.32;1797712;80;21310;-82
2020/12/02 01:02:47;;;;;;;47.43;22.15;;;;;;;4.17;81.45;102412.03;1800324;79;21202;-83
2020/12/02 01:05:19;;;;;;;44.70;22.53;;;;;;;4.16;81.44;102411.70;1778969;80;21313;-84
2020/12/02 01:07:52;;;;;;;50.33;24.50;;;;;;;4.16;81.51;102414.44;1800511;80;21361;-84
2020/12/02 01:10:25;;;;;;;51.30;24.47;;;;;;;4.17;81.49;102415.61;1800259;79;21220;-83
2020/12/02 01:12:58;;;;;;;47.38;22.52;;;;;;;4.14;81.46;102415.98;1800728;80;21309;-83
2020/12/02 01:15:30;;;;;;;48.23;22.97;;;;;;;4.15;81.51;102407.23;1800409;80;21171;-85
2020/12/02 01:18:16;;;;;;;42.90;22.40;;;;;;;4.12;81.45;102401.57;1800501;80;21701;-84
2020/12/02 01:20:54;;;;;;;44.87;20.67;;;;;;;4.10;81.58;102402.78;1798457;80;21740;-84
2020/12/02 01:23:26;;;;;;;50.07;24.13;;;;;;;4.07;81.69;102394.37;1798809;80;21309;-85
2020/12/02 01:25:59;;;;;;;48.23;23.40;;;;;;;4.06;81.82;102405.53;1800781;79;21209;-85
2020/12/02 01:28:32;;;;;;;55.12;22.52;;;;;;;4.00;81.90;102403.48;1800727;79;21364;-83
2020/12/02 01:31:05;;;;;;;44.20;21.87;;;;;;;3.99;82.07;102397.15;1802110;79;21305;-82
2020/12/02 01:33:38;;;;;;;47.57;21.90;;;;;;;4.01;82.16;102401.07;1783397;79;21266;-84
2020/12/02 01:36:12;;;;;;;49.95;23.55;;;;;;;4.05;82.22;102399.70;1803086;79;21226;-84
2020/12/02 01:38:44;;;;;;;50.53;22.30;;;;;;;4.09;82.25;102395.04;1800927;79;21179;-85
2020/12/02 01:41:17;;;;;;;48.80;23.40;;;;;;;4.12;82.25;102388.34;1800485;79;21178;-83
2020/12/02 01:43:51;;;;;;;48.97;22.57;;;;;;;4.13;82.16;102395.54;1801023;79;21308;-85
2020/12/02 01:46:51;;;;;;;46.50;22.30;;;;;;;4.16;82.21;102391.92;1800505;79;21407;-84
2020/12/02 01:49:29;;;;;;;49.03;22.00;;;;;;;4.21;82.23;102390.04;1807238;78;21227;-85
2020/12/02 01:52:32;;;;;;;55.63;24.50;;;;;;;4.21;82.09;102385.38;1739813;82;21321;-84
2020/12/02 01:55:06;;;;;;;62.40;21.40;;;;;;;4.18;82.11;102398.12;1823885;78;21357;-85
2020/12/02 01:57:38;;;;;;;49.53;22.75;;;;;;;4.16;82.11;102399.33;1740158;82;21845;-85
2020/12/02 02:00:16;;;;;;;46.33;21.50;;;;;;;4.17;82.18;102398.28;1763787;81;21191;-84
2020/12/02 02:03:16;;;;;;;48.60;22.93;;;;;;;4.20;82.20;102407.53;1740348;82;21368;-78
2020/12/02 02:05:59;;;;;;;51.20;23.73;;;;;;;4.24;82.19;102404.78;1824253;78;21214;-85
2020/12/02 02:08:33;;;;;;;42.13;20.13;;;;;;;4.25;82.12;102409.24;1739703;82;21232;-85
2020/12/02 02:11:06;;;;;;;51.67;23.50;;;;;;;4.23;82.14;102401.70;1819308;79;21341;-84
2020/12/02 02:13:56;;;;;;;65.55;25.17;;;;;;;4.26;82.21;102404.08;1738131;82;21747;-84
2020/12/02 02:16:36;;;;;;;52.80;22.50;;;;;;;4.27;82.18;102406.66;1757431;81;21825;-83
2020/12/02 02:19:14;;;;;;;52.63;23.03;;;;;;;4.26;82.17;102413.20;1739749;82;21807;-83
2020/12/02 02:21:49;;;;;;;47.77;23.43;;;;;;;4.25;82.13;102405.98;1739353;82;21194;-84
2020/12/02 02:24:22;;;;;;;45.80;21.53;;;;;;;4.27;82.24;102395.66;1825297;78;21255;-85
2020/12/02 02:26:56;;;;;;;53.20;23.30;;;;;;;4.34;82.30;102401.32;1740222;82;21140;-85
2020/12/02 02:29:32;;;;;;;54.87;23.77;;;;;;;4.38;82.25;102413.66;1761540;81;21321;-84
2020/12/02 02:32:10;;;;;;;51.00;22.80;;;;;;;4.45;82.12;102409.19;1761282;81;21318;-85
2020/12/02 02:34:47;;;;;;;50.63;20.77;;;;;;;4.46;81.94;102400.73;1738264;82;21392;-84
2020/12/02 02:37:23;;;;;;;49.07;22.80;;;;;;;4.45;81.73;102407.81;1819389;78;21152;-84
2020/12/02 02:39:56;;;;;;;53.83;22.43;;;;;;;4.44;81.75;102395.07;1737797;82;21374;-83
2020/12/02 02:42:49;;;;;;;49.95;22.75;;;;;;;4.46;81.77;102391.64;1763874;81;21344;-84
2020/12/02 02:45:26;;;;;;;52.57;22.80;;;;;;;4.47;81.72;102394.73;1763782;81;21357;-83
2020/12/02 02:48:06;;;;;;;51.63;21.73;;;;;;;4.39;81.54;102396.16;1739852;82;21880;-83
2020/12/02 02:50:36;;;;;;;46.60;23.53;;;;;;;4.35;81.69;102400.28;1828024;78;21313;-82
2020/12/02 02:53:22;;;;;;;46.07;22.73;;;;;;;4.33;81.76;102394.11;1767288;80;21325;-83
2020/12/02 02:55:58;;;;;;;55.40;22.60;;;;;;;4.31;81.87;102394.28;1767379;81;21822;-84
2020/12/02 02:58:30;;;;;;;42.37;20.30;;;;;;;4.29;81.91;102394.12;1788351;80;21365;-82
2020/12/02 03:01:03;;;;;;;50.08;20.77;;;;;;;4.28;81.97;102405.62;1767564;81;21376;-84
2020/12/02 03:03:36;;;;;;;48.33;22.65;;;;;;;4.32;82.04;102399.25;1767541;81;21209;-80
2020/12/02 03:06:11;;;;;;;46.80;21.07;;;;;;;4.34;82.01;102403.53;1789627;80;21223;-83
2020/12/02 03:08:43;;;;;;;48.53;19.73;;;;;;;4.31;81.87;102405.28;1767041;81;21323;-82
2020/12/02 03:11:16;;;;;;;43.53;19.43;;;;;;;4.30;81.89;102399.95;1767572;81;21333;-82
2020/12/02 03:13:51;;;;;;;46.25;18.55;;;;;;;4.30;81.92;102404.95;1788099;80;21777;-79
2020/12/02 03:16:32;;;;;;;42.60;19.50;;;;;;;4.32;82.00;102408.36;1767087;81;21860;-82
2020/12/02 03:19:21;;;;;;;49.53;19.53;;;;;;;4.34;82.01;102410.41;1760153;81;21674;-80
2020/12/02 03:21:58;;;;;;;73.53;26.53;;;;;;;4.41;82.05;102412.78;1767897;81;21342;-79
2020/12/02 03:24:30;;;;;;;58.73;24.70;;;;;;;4.47;81.92;102428.56;1766777;81;21225;-80
2020/12/02 03:27:04;;;;;;;43.80;19.57;;;;;;;4.53;81.89;102425.64;1766991;81;21241;-79
2020/12/02 03:29:38;;;;;;;40.63;17.23;;;;;;;4.59;81.76;102426.30;1767283;81;21324;-79
2020/12/02 03:32:11;;;;;;;34.80;16.67;;;;;;;4.62;81.59;102429.55;1767309;81;21380;-80
2020/12/02 03:34:43;;;;;;;31.70;13.13;;;;;;;4.60;81.33;102430.75;1767072;81;21175;-81
2020/12/02 03:37:16;;;;;;;26.47;12.50;;;;;;;4.59;81.30;102429.88;1767689;81;21242;-81
2020/12/02 03:39:49;;;;;;;32.43;14.20;;;;;;;4.64;81.20;102426.09;1767279;81;21195;-81
2020/12/02 03:42:21;;;;;;;23.77;11.93;;;;;;;4.62;80.76;102425.92;1766874;81;21844;-81
2020/12/02 03:44:54;;;;;;;16.20;9.37;;;;;;;4.56;80.33;102423.39;1766844;81;21245;-80
2020/12/02 03:47:27;;;;;;;18.47;9.03;;;;;;;4.46;80.02;102419.14;1767738;81;22208;-82
2020/12/02 03:50:00;;;;;;;;;;;;;;;4.41;80.28;102418.81;1749059;81;21191;-81
2020/12/02 03:52:33;;;;;;;20.83;11.20;;;;;;;4.41;80.41;102422.41;1772707;81;20176;-80
2020/12/02 03:55:07;;;;;;;16.02;9.73;;;;;;;4.41;80.25;102418.81;1793500;80;21369;-81
2020/12/02 03:57:40;;;;;;;18.55;10.00;;;;;;;4.35;80.18;102420.36;1775374;80;21385;-81
2020/12/02 04:00:13;;;;;;;22.23;10.80;;;;;;;4.31;80.24;102420.40;1775587;81;21316;-80
2020/12/02 04:02:46;;;;;;;26.52;10.53;;;;;;;4.31;80.09;102423.15;1793822;80;21353;-80
2020/12/02 04:05:18;;;;;;;18.98;11.30;;;;;;;4.31;80.12;102413.53;1775008;81;21352;-81
2020/12/02 04:07:51;;;;;;;18.23;10.23;;;;;;;4.32;80.08;102421.23;1778001;81;21368;-82
2020/12/02 04:10:23;;;;;;;19.30;10.63;;;;;;;4.31;80.16;102420.91;1796160;80;21406;-80
2020/12/02 04:12:56;;;;;;;19.80;11.43;;;;;;;4.30;80.23;102421.44;1775604;81;21800;-79
2020/12/02 04:15:29;;;;;;;19.75;11.55;;;;;;;4.32;80.14;102428.11;1774978;81;21253;-80
2020/12/02 04:18:02;;;;;;;21.37;10.10;;;;;;;4.33;80.05;102429.85;1793724;80;21820;-79
2020/12/02 04:20:34;;;;;;;16.80;9.57;;;;;;;4.33;79.90;102424.35;1775340;81;21175;-80
2020/12/02 04:23:07;;;;;;;24.12;10.40;;;;;;;4.31;79.86;102430.52;1775035;81;22510;-80
2020/12/02 04:25:41;;;;;;;22.25;10.60;;;;;;;4.31;79.96;102430.52;1773862;81;21648;-75
2020/12/02 04:28:14;;;;;;;19.57;10.57;;;;;;;4.35;79.94;102435.48;1774938;81;21379;-75
2020/12/02 04:30:47;;;;;;;18.67;10.20;;;;;;;4.35;79.83;102445.10;1735832;81;21234;-77
2020/12/02 04:33:20;;;;;;;17.60;10.08;;;;;;;4.34;79.81;102440.64;1742411;82;21880;-75
2020/12/02 04:35:53;;;;;;;22.93;9.53;;;;;;;4.40;79.97;102433.60;1744608;82;21276;-76
2020/12/02 04:38:27;;;;;;;19.12;11.20;;;;;;;4.43;79.77;102440.10;1744589;82;21685;-76
2020/12/02 04:41:01;;;;;;;18.17;10.32;;;;;;;4.40;79.72;102440.47;1744585;82;21284;-77
2020/12/02 04:43:38;;;;;;;19.65;10.82;;;;;;;4.37;79.95;102434.81;1738287;82;21784;-76
2020/12/02 04:46:18;;;;;;;21.90;11.40;;;;;;;4.36;80.04;102427.60;1816340;79;21190;-77
2020/12/02 04:48:58;;;;;;;20.80;11.10;;;;;;;4.35;80.13;102435.48;1744463;82;21430;-77
2020/12/02 04:51:31;;;;;;;27.53;13.23;;;;;;;4.33;80.15;102433.44;1787467;79;21379;-76
2020/12/02 04:54:05;;;;;;;20.52;10.43;;;;;;;4.29;80.39;102432.60;1737319;82;21229;-77
2020/12/02 04:56:41;;;;;;;20.70;11.33;;;;;;;4.26;80.53;102445.31;1805232;79;21332;-76
2020/12/02 04:59:13;;;;;;;21.63;11.87;;;;;;;4.27;80.62;102440.18;1736482;82;21392;-76
2020/12/02 05:01:53;;;;;;;23.42;12.15;;;;;;;4.26;80.58;102443.43;1805471;79;21158;-76
2020/12/02 05:04:29;;;;;;;21.93;12.27;;;;;;;4.27;80.58;102438.80;1736771;82;21388;-81
2020/12/02 05:07:19;;;;;;;21.10;11.37;;;;;;;4.26;80.59;102439.81;1805499;79;21316;-83
2020/12/02 05:10:02;;;;;;;26.33;13.30;;;;;;;4.21;80.63;102438.14;1734231;82;21293;-85
2020/12/02 05:12:44;;;;;;;24.53;13.60;;;;;;;4.22;80.66;102450.30;1805997;79;21829;-86
2020/12/02 05:15:27;;;;;;;30.40;13.23;;;;;;;4.26;80.47;102449.44;1736873;82;21849;-85
2020/12/02 05:18:16;;;;;;;19.87;11.85;;;;;;;4.29;80.43;102448.56;1806240;79;21784;-84
2020/12/02 05:21:05;;;;;;;33.13;20.33;;;;;;;4.35;80.23;102448.39;1736484;82;21335;-78
2020/12/02 05:23:38;;;;;;;24.63;13.50;;;;;;;4.41;80.17;102449.06;1805682;79;21803;-83
2020/12/02 05:26:20;;;;;;;27.87;13.07;;;;;;;4.45;80.10;102456.77;1736619;82;21261;-84
2020/12/02 05:28:53;;;;;;;27.70;13.87;;;;;;;4.45;79.73;102460.05;1805917;78;21341;-86
2020/12/02 05:31:31;;;;;;;29.30;13.97;;;;;;;4.41;79.63;102462.80;1807475;78;21321;-84
2020/12/02 05:34:18;;;;;;;29.03;14.10;;;;;;;4.39;79.59;102463.51;1802499;79;21297;-84
2020/12/02 05:36:53;;;;;;;22.80;12.57;;;;;;;4.36;79.70;102457.84;1805382;79;21607;-87
2020/12/02 05:39:32;;;;;;;25.27;12.83;;;;;;;4.39;79.72;102464.34;1805052;79;21309;-84
2020/12/02 05:42:07;;;;;;;23.10;12.67;;;;;;;4.36;79.73;102459.72;1802813;79;21305;-84
2020/12/02 05:44:42;;;;;;;28.33;13.57;;;;;;;4.30;79.97;102458.55;1794836;79;21162;-87
2020/12/02 05:47:19;;;;;;;27.00;14.37;;;;;;;4.26;80.15;102456.30;1805357;79;21310;-87
2020/12/02 05:49:57;;;;;;;32.43;17.20;;;;;;;4.24;80.31;102455.63;1805013;79;21666;-89
2020/12/02 05:52:37;;;;;;;33.13;16.50;;;;;;;4.24;80.28;102463.87;1803173;79;21309;-78
2020/12/02 05:55:30;;;;;;;25.67;13.67;;;;;;;4.27;80.28;102470.41;1796936;79;21204;-81
2020/12/02 05:58:18;;;;;;;28.17;13.80;;;;;;;4.28;80.09;102470.75;1808691;78;21354;-79
2020/12/02 06:00:51;;;;;;;34.37;15.17;;;;;;;4.26;79.91;102464.05;1800592;79;21316;-80
2020/12/02 06:03:32;;;;;;;30.10;15.63;;;;;;;4.27;79.96;102469.04;1804862;79;21376;-76
2020/12/02 06:06:07;;;;;;;35.53;14.77;;;;;;;4.27;79.90;102467.66;1807772;78;21247;-79
2020/12/02 06:08:50;;;;;;;26.57;13.38;;;;;;;4.23;79.77;102475.91;1766526;81;21329;-81
2020/12/02 06:11:32;;;;;;;22.27;12.70;;;;;;;4.14;79.89;102472.82;1766649;81;21235;-82
2020/12/02 06:14:17;;;;;;;27.70;16.13;;;;;;;4.06;80.11;102479.22;1741180;82;21395;-80
2020/12/02 06:16:50;;;;;;;30.60;16.70;;;;;;;4.05;80.34;102482.13;1712234;82;21171;-81
2020/12/02 06:19:41;;;;;;;29.13;15.87;;;;;;;4.08;80.43;102480.39;1742347;82;21396;-80
2020/12/02 06:22:14;;;;;;;26.60;13.87;;;;;;;4.14;80.43;102485.19;1742196;82;21170;-85
2020/12/02 06:24:48;;;;;;;30.67;14.77;;;;;;;4.19;80.20;102497.39;1743050;82;21187;-85
2020/12/02 06:27:37;;;;;;;25.00;14.20;;;;;;;4.21;80.34;102500.81;1753685;80;21321;-84
2020/12/02 06:30:15;;;;;;;30.00;15.90;;;;;;;4.27;80.04;102497.91;1732663;81;21793;-84
2020/12/02 06:33:03;;;;;;;26.73;14.20;;;;;;;4.25;79.87;102502.70;1822375;78;21306;-85
2020/12/02 06:35:36;;;;;;;28.33;14.83;;;;;;;4.18;80.06;102502.55;1736101;82;21307;-85
2020/12/02 06:38:25;;;;;;;28.15;14.83;;;;;;;4.14;80.30;102504.42;1820696;79;21294;-84
2020/12/02 06:41:05;;;;;;;27.80;15.03;;;;;;;4.14;80.44;102503.05;1738853;82;21310;-87
2020/12/02 06:43:54;;;;;;;27.00;15.43;;;;;;;4.13;80.47;102490.35;1827381;78;21325;-84
2020/12/02 06:46:51;;;;;;;28.20;15.50;;;;;;;4.10;80.47;102495.67;1821975;79;21357;-83
2020/12/02 06:49:33;;;;;;;33.83;17.87;;;;;;;4.13;80.47;102494.47;1819795;79;21309;-84
2020/12/02 06:52:30;;;;;;;31.00;16.17;;;;;;;4.13;80.38;102495.84;1735881;82;21785;-86
2020/12/02 06:55:12;;;;;;;28.70;13.37;;;;;;;4.14;80.43;102497.55;1758256;81;21439;-86
2020/12/02 06:57:46;;;;;;;34.13;15.03;;;;;;;4.13;80.30;102503.59;1824167;78;21384;-82
2020/12/02 07:00:26;;;;;;;29.77;15.40;;;;;;;4.13;80.36;102500.84;1739928;81;22241;-85
2020/12/02 07:03:01;;;;;;;33.47;16.60;;;;;;;4.15;80.27;102502.89;1756348;81;21222;-88
2020/12/02 07:05:43;;;;;;;30.87;14.90;;;;;;;4.16;80.02;102502.38;1743690;81;21381;-89
2020/12/02 07:08:31;;;;;;;30.82;16.00;;;;;;;4.17;80.15;102499.44;1745908;81;21334;-88
2020/12/02 07:11:17;;;;;;;30.77;15.95;;;;;;;4.21;80.07;102509.06;1811648;78;21354;-89
2020/12/02 07:13:52;;;;;;;37.97;19.27;;;;;;;4.22;79.84;102503.90;1813031;78;21175;-91
2020/12/02 07:16:31;;;;;;;35.93;17.33;;;;;;;4.25;79.53;102518.69;1811297;78;21337;-91
2020/12/02 07:19:11;;;;;;;28.27;16.40;;;;;;;4.28;79.40;102527.10;1818400;78;21405;-91
2020/12/02 07:22:03;;;;;;;33.23;16.97;;;;;;;4.32;79.18;102524.33;1745952;81;21361;-92
2020/12/02 07:24:46;;;;;;;37.27;16.97;;;;;;;4.36;78.99;102525.70;1742341;82;21179;-90
2020/12/02 07:27:21;;;;;;;26.40;14.58;;;;;;;4.41;78.81;102524.13;1823454;78;21345;-89
2020/12/02 07:30:02;;;;;;;29.27;14.33;;;;;;;4.40;78.50;102517.45;1741110;82;21368;-90
2020/12/02 07:32:35;;;;;;;28.83;15.10;;;;;;;4.36;78.66;102521.58;1759720;81;21337;-89
2020/12/02 07:35:17;;;;;;;23.83;13.83;;;;;;;4.37;78.94;102524.66;1742626;82;21183;-90
2020/12/02 07:37:52;;;;;;;23.97;13.40;;;;;;;4.38;78.98;102527.75;1823657;78;21302;-89
2020/12/02 07:40:34;;;;;;;23.57;12.13;;;;;;;4.32;78.63;102522.45;1823335;77;21175;-91
2020/12/02 07:43:16;;;;;;;28.30;14.10;;;;;;;4.25;78.75;102523.31;1826303;78;21309;-89
2020/12/02 07:45:48;;;;;;;30.90;15.93;;;;;;;4.22;78.99;102522.30;1740856;82;22201;-88
2020/12/02 07:48:28;;;;;;;25.95;14.40;;;;;;;4.24;79.14;102524.34;1822111;78;21860;-86
2020/12/02 07:51:04;;;;;;;28.00;14.70;;;;;;;4.27;79.08;102524.02;1736873;82;21800;-82
2020/12/02 07:53:44;;;;;;;28.77;15.67;;;;;;;4.32;78.95;102523.82;1805495;79;21318;-84
2020/12/02 07:56:28;;;;;;;23.73;14.70;;;;;;;4.35;78.58;102522.61;1805554;79;21894;-86
2020/12/02 07:59:28;;;;;;;26.23;15.78;;;;;;;4.36;78.24;102529.83;1805778;79;21311;-84
2020/12/02 08:02:06;;;;;;;26.50;13.83;;;;;;;4.36;78.01;102529.83;1801722;79;21181;-84
2020/12/02 08:04:53;;;;;;;30.93;15.63;;;;;;;4.38;78.06;102535.99;1802257;79;21217;-83
2020/12/02 08:07:41;;;;;;;31.60;17.10;;;;;;;4.39;78.02;102533.61;1803101;79;21301;-84
2020/12/02 08:10:25;;;;;;;30.83;17.60;;;;;;;4.43;78.13;102535.83;1800812;79;21164;-84
2020/12/02 08:12:58;;;;;;;34.95;18.75;;;;;;;4.50;78.16;102529.97;1803408;79;21306;-84
2020/12/02 08:15:46;;;;;;;33.83;16.10;;;;;;;4.53;77.81;102529.59;1803012;79;21231;-83
2020/12/02 08:18:22;;;;;;;28.40;15.97;;;;;;;4.54;77.54;102534.59;1789188;79;21218;-83
2020/12/02 08:20:57;;;;;;;38.45;19.35;;;;;;;4.55;77.55;102525.30;1803177;79;21136;-85
2020/12/02 08:23:33;;;;;;;32.73;17.33;;;;;;;4.56;77.50;102522.89;1804452;79;21221;-84
2020/12/02 08:26:18;;;;;;;37.43;19.60;;;;;;;4.56;77.21;102527.02;1805785;79;21402;-83
2020/12/02 08:28:52;;;;;;;35.03;16.80;;;;;;;4.57;76.90;102528.22;1788286;79;21226;-84
2020/12/02 08:31:28;;;;;;;31.17;18.32;;;;;;;4.61;76.85;102533.72;1776828;78;21221;-81
2020/12/02 08:34:23;;;;;;;46.87;19.47;;;;;;;4.65;76.70;102519.09;1814069;78;21372;-81
2020/12/02 08:37:19;;;;;;;33.63;18.35;;;;;;;4.70;76.09;102529.05;1739052;82;21361;-84
2020/12/02 08:39:55;;;;;;;38.10;19.53;;;;;;;4.72;76.04;102524.23;1761582;81;21155;-84
2020/12/02 08:45:15;;;;;;;34.57;20.03;;;;;;;4.77;75.37;102517.68;1760872;80;21345;-85
2020/12/02 08:47:58;;;;;;;36.87;20.23;;;;;;;4.76;75.23;102515.97;1755586;81;21369;-85
2020/12/02 08:50:34;;;;;;;37.07;20.13;;;;;;;4.77;75.35;102510.27;1791431;80;21159;-85
2020/12/02 08:53:06;;;;;;;35.30;20.40;;;;;;;4.77;75.01;102508.89;1792428;80;21191;-85
2020/12/02 08:55:44;;;;;;;33.90;18.20;;;;;;;4.76;74.98;102507.72;1792722;80;21337;-85
2020/12/02 08:58:18;;;;;;;33.13;18.27;;;;;;;4.77;75.01;102514.93;1792511;80;22049;-83
2020/12/02 09:00:53;;;;;;;34.55;18.00;;;;;;;4.77;74.78;102514.93;1792346;78;21666;-86
2020/12/02 09:03:26;;;;;;;29.92;16.52;;;;;;;4.77;74.91;102519.05;1807996;78;21342;-86
2020/12/02 09:05:59;;;;;;;33.23;17.82;;;;;;;4.80;74.77;102511.80;1804365;79;21195;-85
2020/12/02 09:08:32;;;;;;;30.48;15.63;;;;;;;4.85;74.47;102513.00;1805135;79;21184;-85
2020/12/02 09:11:04;;;;;;;35.07;17.80;;;;;;;4.88;73.90;102503.53;1806451;79;21431;-86
2020/12/02 09:13:39;;;;;;;35.23;18.27;;;;;;;4.89;74.25;102499.20;1809741;78;21338;-87
2020/12/02 09:16:13;;;;;;;32.60;16.80;;;;;;;4.95;74.10;102494.91;1748969;81;21729;-85
2020/12/02 09:18:49;;;;;;;36.53;19.57;;;;;;;4.97;74.11;102496.94;1806035;79;21400;-84
2020/12/02 09:21:23;;;;;;;34.67;18.63;;;;;;;4.98;73.92;102497.28;1805571;79;21358;-86
2020/12/02 09:23:56;;;;;;;36.13;18.70;;;;;;;4.97;74.00;102510.70;1814462;78;21240;-86
2020/12/02 09:26:36;;;;;;;31.47;16.50;;;;;;;4.95;74.12;102506.75;1764901;81;21234;-86
2020/12/02 09:29:12;;;;;;;37.73;19.82;;;;;;;4.94;74.32;102504.20;1818859;77;21211;-86
2020/12/02 09:31:45;;;;;;;31.50;17.00;;;;;;;4.90;74.58;102501.45;1803313;79;21725;-85
2020/12/02 09:34:18;;;;;;;33.90;17.90;;;;;;;4.89;74.88;102495.08;1806667;79;21298;-85
2020/12/02 09:36:51;;;;;;;36.10;19.35;;;;;;;4.90;74.98;102506.42;1804071;79;21171;-87
2020/12/02 09:39:24;;;;;;;28.83;16.23;;;;;;;4.92;75.18;102502.13;1805043;79;21187;-86
2020/12/02 09:42:22;;;;;;;35.03;17.93;;;;;;;4.95;75.23;102501.78;1805843;79;21159;-86
2020/12/02 09:45:03;;;;;;;33.92;19.17;;;;;;;4.93;75.37;102496.95;1805047;79;21321;-86
2020/12/02 09:47:37;;;;;;;35.57;18.80;;;;;;;4.88;75.71;102495.28;1805896;79;21590;-86
2020/12/02 09:50:10;;;;;;;34.27;18.45;;;;;;;4.77;75.88;102487.42;1768151;77;21222;-85
2020/12/02 09:52:46;;;;;;;35.50;17.20;;;;;;;4.68;75.99;102492.59;1805364;79;21207;-80
2020/12/02 09:55:25;;;;;;;37.93;17.23;;;;;;;4.60;76.34;102484.39;1804514;79;21301;-81
2020/12/02 09:57:58;;;;;;;28.45;17.15;;;;;;;4.54;76.61;102487.34;1801719;79;21240;-81
2020/12/02 10:00:30;;;;;;;34.50;19.57;;;;;;;4.51;76.82;102486.80;1804219;79;21351;-81
2020/12/02 10:03:28;;;;;;;38.10;20.55;;;;;;;4.51;77.08;102478.56;1804973;79;21384;-82
2020/12/02 10:06:44;;;;;;;34.67;19.63;;;;;;;4.49;76.79;102482.02;1805882;79;21770;-84
2020/12/02 10:09:38;;;;;;;37.17;19.77;;;;;;;4.45;76.97;102482.05;1805851;79;21211;-84
2020/12/02 10:12:24;;;;;;;43.23;21.20;;;;;;;4.41;76.92;102478.77;1818573;78;21806;-85
2020/12/02 10:15:23;;;;;;;45.13;21.53;;;;;;;4.40;76.91;102469.34;1804639;79;21342;-87
2020/12/02 10:18:30;;;;;;;38.77;20.10;;;;;;;4.40;76.83;102469.34;1787531;79;21352;-87
2020/12/02 10:21:34;;;;;;;39.43;20.50;;;;;;;4.42;76.58;102471.39;1737670;82;21662;-86
2020/12/02 10:24:42;;;;;;;42.37;20.30;;;;;;;4.48;76.45;102479.80;1736611;82;21309;-85
2020/12/02 10:27:29;;;;;;;35.93;20.40;;;;;;;4.52;75.98;102477.55;1801696;79;21222;-87
2020/12/02 10:30:22;;;;;;;48.17;22.40;;;;;;;4.49;75.30;102476.52;1807117;79;21269;-86
2020/12/02 10:33:28;;;;;;;38.20;20.37;;;;;;;4.48;75.59;102480.30;1785086;79;21337;-85
2020/12/02 10:36:01;;;;;;;36.73;19.20;;;;;;;4.49;75.71;102469.64;1807191;79;21290;-84
2020/12/02 10:38:44;;;;;;;41.57;22.03;;;;;;;4.53;75.91;102469.64;1806811;79;21183;-82
2020/12/02 10:41:52;;;;;;;38.43;21.00;;;;;;;4.54;75.48;102465.34;1805913;79;21317;-85
2020/12/02 10:44:47;;;;;;;47.43;24.17;;;;;;;4.56;75.69;102461.02;1805715;79;21175;-86
2020/12/02 10:47:52;;;;;;;39.23;18.90;;;;;;;4.56;75.72;102456.89;1805867;79;21308;-89
2020/12/02 10:50:25;;;;;;;40.57;21.73;;;;;;;4.55;75.87;102460.68;1805274;79;21338;-87
2020/12/02 10:53:00;;;;;;;44.13;21.90;;;;;;;4.55;76.22;102451.92;1805844;79;21338;-86
2020/12/02 10:55:34;;;;;;;41.10;20.10;;;;;;;4.57;76.23;102451.22;1807445;79;21155;-88
2020/12/02 10:58:29;;;;;;;37.40;18.50;;;;;;;4.63;75.91;102457.38;1806814;79;21242;-87
2020/12/02 11:01:04;;;;;;;32.07;15.97;;;;;;;4.63;75.58;102457.38;1804318;79;21297;-88
2020/12/02 11:03:41;;;;;;;35.27;20.13;;;;;;;4.66;75.72;102452.05;1805855;79;21166;-87
2020/12/02 11:06:22;;;;;;;35.43;19.03;;;;;;;4.70;75.62;102450.66;1805812;79;21375;-86
2020/12/02 11:09:18;;;;;;;39.50;20.08;;;;;;;4.69;75.51;102459.42;1805195;79;21301;-88
2020/12/02 11:12:07;;;;;;;35.30;16.65;;;;;;;4.69;75.58;102447.05;1805789;79;21320;-87
2020/12/02 11:15:01;;;;;;;33.55;17.30;;;;;;;4.66;75.68;102447.92;1805590;79;21305;-79
2020/12/02 11:17:41;;;;;;;36.68;16.25;;;;;;;4.63;75.87;102449.63;1805605;79;21364;-88
2020/12/02 11:20:31;;;;;;;36.37;17.93;;;;;;;4.65;75.95;102448.96;1804569;79;21360;-87
2020/12/02 11:23:32;;;;;;;35.07;18.97;;;;;;;4.67;76.16;102457.37;1805752;79;21588;-90
2020/12/02 11:26:30;;;;;;;40.20;18.90;;;;;;;4.67;76.32;102447.75;1805559;79;21155;-83
2020/12/02 11:29:04;;;;;;;32.30;16.50;;;;;;;4.65;76.64;102455.30;1814605;78;21155;-83
2020/12/02 11:31:56;;;;;;;31.07;17.30;;;;;;;4.64;76.88;102454.13;1747498;80;21802;-83
2020/12/02 11:35:11;;;;;;;35.80;19.37;;;;;;;4.66;77.04;102452.05;1736893;81;21323;-84
2020/12/02 11:38:10;;;;;;;33.03;16.23;;;;;;;4.63;77.24;102457.89;1805109;78;21354;-83
2020/12/02 11:41:09;;;;;;;32.13;16.53;;;;;;;4.64;77.27;102461.00;1733959;83;21208;-82
2020/12/02 11:43:43;;;;;;;30.70;18.30;;;;;;;4.60;77.34;102447.26;1806758;78;21370;-86
2020/12/02 11:46:19;;;;;;;37.63;20.68;;;;;;;4.60;77.77;102455.51;1817708;78;21760;-88
2020/12/02 11:49:19;;;;;;;32.57;18.40;;;;;;;4.61;77.98;102460.84;1734548;81;21326;-88
2020/12/02 11:51:59;;;;;;;33.53;17.73;;;;;;;4.56;78.02;102457.77;1808864;77;21167;-86
2020/12/02 11:54:34;;;;;;;33.67;18.37;;;;;;;4.54;78.21;102452.09;1802601;79;21298;-85
2020/12/02 11:57:06;;;;;;;38.02;18.42;;;;;;;4.57;78.54;102458.59;1736008;82;21684;-85
2020/12/02 11:59:44;;;;;;;34.27;18.85;;;;;;;4.58;78.75;102457.59;1755362;81;21318;-88
2020/12/02 12:02:50;;;;;;;35.10;18.03;;;;;;;4.61;78.76;102453.09;1729376;81;21366;-86
2020/12/02 12:05:26;;;;;;;32.20;17.03;;;;;;;4.64;79.01;102454.13;1814643;78;21322;-87
2020/12/02 12:08:20;;;;;;;34.33;17.87;;;;;;;4.67;79.10;102449.12;1800465;79;21655;-87
2020/12/02 12:11:02;;;;;;;32.43;17.43;;;;;;;4.73;79.18;102447.53;1795226;79;21324;-87
2020/12/02 12:13:48;;;;;;;32.27;17.90;;;;;;;4.73;79.26;102447.53;1800884;79;21234;-86
2020/12/02 12:16:43;;;;;;;33.30;16.12;;;;;;;4.70;79.51;102452.88;1802408;78;21816;-86